createdAt,value
2023-05-20T00:01:24.660Z,81.05
2023-05-20T00:03:56.437Z,80.84
2023-05-20T00:06:28.039Z,80.63
2023-05-20T00:09:00.300Z,80.73
2023-05-20T00:11:32.027Z,80.95
2023-05-20T00:14:03.634Z,81.25
2023-05-20T00:16:35.204Z,80.94
2023-05-20T00:19:07.362Z,80.94
2023-05-20T00:21:38.764Z,80.89
2023-05-20T00:24:10.316Z,80.73
2023-05-20T00:26:41.828Z,80.74
2023-05-20T00:29:13.542Z,80.32
2023-05-20T00:31:45.087Z,80.29
2023-05-20T00:34:16.666Z,80.51
2023-05-20T00:36:48.248Z,80.27
2023-05-20T00:39:19.839Z,80.19
2023-05-20T00:41:51.375Z,80.08
2023-05-20T00:44:24.761Z,79.99
2023-05-20T00:46:56.585Z,80.06
2023-05-20T00:49:28.252Z,80.59
2023-05-20T00:52:00.192Z,80.41
2023-05-20T00:54:32.246Z,80.61
2023-05-20T00:57:06.474Z,80.26
2023-05-20T00:59:39.135Z,80.16
2023-05-20T01:02:11.052Z,80.35
2023-05-20T01:04:47.141Z,80.63
2023-05-20T01:07:19.625Z,80.60
2023-05-20T01:09:52.569Z,80.38
2023-05-20T01:12:31.001Z,80.26
2023-05-20T01:15:07.049Z,81.04
2023-05-20T01:17:44.976Z,80.93
2023-05-20T01:20:18.852Z,80.73
2023-05-20T01:22:55.214Z,80.79
2023-05-20T01:25:27.097Z,80.98
2023-05-20T01:27:58.685Z,81.04
2023-05-20T01:30:35.665Z,80.98
2023-05-20T01:33:12.305Z,81.11
2023-05-20T01:35:44.135Z,81.42
2023-05-20T01:38:19.277Z,81.82
2023-05-20T01:40:51.765Z,81.30
2023-05-20T01:43:24.482Z,81.89
2023-05-20T01:45:56.073Z,81.66
2023-05-20T01:48:27.646Z,81.82
2023-05-20T01:50:59.314Z,81.73
2023-05-20T01:53:30.901Z,82.29
2023-05-20T01:56:02.420Z,82.38
2023-05-20T01:58:34.015Z,82.17
2023-05-20T02:01:05.636Z,82.23
2023-05-20T02:03:37.143Z,82.16
2023-05-20T02:06:08.738Z,82.75
2023-05-20T02:08:40.504Z,82.48
2023-05-20T02:11:12.012Z,82.56
2023-05-20T02:13:43.543Z,82.84
2023-05-20T02:16:15.135Z,83.14
2023-05-20T02:18:46.750Z,82.88
2023-05-20T02:21:18.676Z,82.81
2023-05-20T02:23:50.560Z,83.13
2023-05-20T02:26:22.691Z,83.05
2023-05-20T02:28:54.307Z,83.78
2023-05-20T02:31:26.036Z,83.40
2023-05-20T02:33:57.967Z,83.93
2023-05-20T02:36:29.579Z,83.78
2023-05-20T02:39:01.239Z,83.86
2023-05-20T02:41:32.791Z,83.76
2023-05-20T02:44:04.467Z,83.84
2023-05-20T02:46:36.171Z,83.85
2023-05-20T02:49:07.883Z,83.90
2023-05-20T02:51:40.333Z,83.83
2023-05-20T02:54:12.095Z,84.11
2023-05-20T02:56:43.652Z,84.01
2023-05-20T02:59:15.542Z,84.00
2023-05-20T03:01:47.191Z,83.89
2023-05-20T03:04:19.256Z,83.99
2023-05-20T03:06:52.118Z,84.26
2023-05-20T03:09:25.144Z,84.37
2023-05-20T03:11:56.743Z,84.30
2023-05-20T03:14:28.254Z,84.44
2023-05-20T03:17:00.164Z,84.54
2023-05-20T03:19:31.865Z,84.14
2023-05-20T03:22:03.681Z,84.24
2023-05-20T03:24:35.676Z,84.50
2023-05-20T03:27:07.244Z,84.26
2023-05-20T03:29:38.851Z,84.20
2023-05-20T03:32:11.051Z,84.17
2023-05-20T03:34:42.500Z,84.85
2023-05-20T03:37:14.141Z,84.88
2023-05-20T03:39:45.701Z,84.64
2023-05-20T03:42:17.261Z,84.81
2023-05-20T03:44:48.819Z,84.59
2023-05-20T03:47:20.373Z,84.91
2023-05-20T03:49:52.202Z,85.15
2023-05-20T03:52:23.734Z,85.18
2023-05-20T03:54:55.336Z,85.97
2023-05-20T03:57:26.952Z,86.16
2023-05-20T03:59:58.644Z,86.28
2023-05-20T04:02:30.442Z,86.61
2023-05-20T04:05:02.346Z,86.93
2023-05-20T04:07:33.944Z,86.79
2023-05-20T04:10:06.181Z,86.36
2023-05-20T04:12:38.399Z,87.14
2023-05-20T04:15:10.621Z,87.15
2023-05-20T04:17:42.702Z,87.28
2023-05-20T04:20:14.509Z,87.12
2023-05-20T04:22:46.097Z,87.40
2023-05-20T04:25:18.006Z,87.79
2023-05-20T04:27:50.014Z,87.63
2023-05-20T04:30:22.056Z,87.54
2023-05-20T04:32:54.578Z,87.34
2023-05-20T04:35:26.338Z,87.11
2023-05-20T04:37:57.975Z,86.62
2023-05-20T04:40:29.602Z,86.75
2023-05-20T04:43:01.275Z,86.37
2023-05-20T04:45:34.109Z,86.41
2023-05-20T04:48:06.079Z,86.14
2023-05-20T04:50:37.875Z,86.13
2023-05-20T04:53:09.737Z,85.57
2023-05-20T04:55:41.471Z,85.79
2023-05-20T04:58:15.624Z,85.76
2023-05-20T05:00:47.160Z,86.16
2023-05-20T05:03:19.022Z,85.89
2023-05-20T05:05:50.628Z,85.71
2023-05-20T05:08:22.164Z,85.58
2023-05-20T05:10:53.665Z,86.35
2023-05-20T05:13:25.258Z,85.89
2023-05-20T05:16:03.452Z,85.71
2023-05-20T05:18:35.113Z,85.74
2023-05-20T05:21:06.862Z,85.57
2023-05-20T05:23:38.461Z,85.82
2023-05-20T05:26:09.964Z,85.49
2023-05-20T05:28:43.363Z,85.83
2023-05-20T05:31:14.909Z,85.44
2023-05-20T05:33:46.481Z,86.00
2023-05-20T05:36:18.050Z,86.11
2023-05-20T05:38:49.565Z,85.82
2023-05-20T05:41:21.631Z,85.96
2023-05-20T05:43:54.025Z,86.20
2023-05-20T05:46:25.785Z,86.30
2023-05-20T05:48:58.913Z,86.18
2023-05-20T05:51:31.068Z,86.13
2023-05-20T05:54:02.636Z,85.74
2023-05-20T05:56:34.164Z,85.86
2023-05-20T05:59:05.962Z,85.60
2023-05-20T06:01:37.711Z,85.33
2023-05-20T06:04:09.394Z,84.33
2023-05-20T06:06:41.784Z,84.54
2023-05-20T06:09:13.319Z,84.56
2023-05-20T06:11:44.807Z,83.02
2023-05-20T06:14:16.344Z,82.29
2023-05-20T06:16:47.912Z,81.72
2023-05-20T06:19:19.500Z,81.66
2023-05-20T06:21:51.040Z,80.83
2023-05-20T06:24:24.365Z,80.29
2023-05-20T06:26:56.498Z,79.89
2023-05-20T06:29:29.251Z,78.38
2023-05-20T06:32:01.431Z,77.80
2023-05-20T06:34:32.792Z,78.09
2023-05-20T06:37:04.455Z,77.33
2023-05-20T06:39:36.232Z,77.33
2023-05-20T06:42:08.157Z,76.99
2023-05-20T06:44:39.705Z,77.90
2023-05-20T06:47:11.692Z,76.61
2023-05-20T06:49:47.157Z,75.28
2023-05-20T06:52:19.219Z,74.82
2023-05-20T06:54:50.752Z,75.24
2023-05-20T06:57:22.501Z,76.23
2023-05-20T06:59:54.037Z,75.72
2023-05-20T07:02:25.781Z,75.63
2023-05-20T07:04:57.321Z,75.57
2023-05-20T07:07:28.890Z,74.17
2023-05-20T07:10:00.525Z,74.50
2023-05-20T07:12:33.893Z,75.95
2023-05-20T07:15:07.884Z,74.98
2023-05-20T07:17:39.472Z,75.04
2023-05-20T07:20:11.147Z,74.21
2023-05-20T07:22:44.057Z,74.28
2023-05-20T07:25:15.602Z,73.70
2023-05-20T07:27:47.143Z,73.22
2023-05-20T07:30:18.750Z,73.67
2023-05-20T07:32:50.424Z,72.48
2023-05-20T07:35:22.143Z,72.54
2023-05-20T07:37:53.689Z,72.36
2023-05-20T07:40:25.273Z,71.50
2023-05-20T07:42:56.855Z,71.68
2023-05-20T07:45:28.442Z,72.50
2023-05-20T07:48:00.019Z,71.98
2023-05-20T07:50:31.626Z,72.03
2023-05-20T07:53:03.188Z,72.25
2023-05-20T07:55:39.265Z,71.25
2023-05-20T07:58:11.100Z,71.31
2023-05-20T08:00:44.582Z,71.86
2023-05-20T08:03:16.261Z,70.59
2023-05-20T08:05:47.970Z,71.24
2023-05-20T08:08:19.517Z,70.98
2023-05-20T08:10:51.823Z,69.98
2023-05-20T08:13:24.332Z,70.20
2023-05-20T08:15:56.195Z,68.85
2023-05-20T08:18:27.973Z,69.21
2023-05-20T08:20:59.797Z,69.28
2023-05-20T08:23:34.088Z,68.34
2023-05-20T08:26:07.711Z,68.71
2023-05-20T08:28:39.568Z,68.48
2023-05-20T08:31:11.343Z,68.13
2023-05-20T08:33:43.154Z,68.08
2023-05-20T08:36:14.695Z,66.71
2023-05-20T08:38:46.528Z,66.23
2023-05-20T08:41:18.462Z,66.24
2023-05-20T08:43:50.949Z,66.87
2023-05-20T08:46:23.241Z,66.79
2023-05-20T08:48:54.983Z,66.42
2023-05-20T08:51:27.780Z,67.57
2023-05-20T08:53:59.974Z,65.93
2023-05-20T08:56:32.793Z,64.54
2023-05-20T08:59:04.357Z,64.38
2023-05-20T09:01:43.225Z,63.64
2023-05-20T09:04:14.823Z,64.11
2023-05-20T09:06:49.666Z,64.00
2023-05-20T09:09:21.197Z,64.53
2023-05-20T09:11:52.732Z,63.98
2023-05-20T09:14:27.104Z,63.71
2023-05-20T09:16:59.455Z,62.61
2023-05-20T09:19:33.567Z,61.44
2023-05-20T09:22:06.022Z,61.26
2023-05-20T09:24:37.545Z,60.80
2023-05-20T09:27:10.355Z,60.81
2023-05-20T09:29:43.619Z,60.86
2023-05-20T09:32:16.354Z,60.31
2023-05-20T09:34:48.055Z,59.86
2023-05-20T09:37:21.677Z,59.88
2023-05-20T09:40:00.716Z,59.85
2023-05-20T09:42:41.653Z,60.16
2023-05-20T09:45:13.358Z,59.53
2023-05-20T09:47:46.140Z,58.69
2023-05-20T09:50:21.160Z,58.67
2023-05-20T09:52:53.954Z,58.98
2023-05-20T09:55:25.496Z,57.76
2023-05-20T09:58:01.859Z,56.85
2023-05-20T10:00:34.560Z,56.07
2023-05-20T10:03:06.698Z,56.90
2023-05-20T10:05:47.438Z,55.23
2023-05-20T10:08:46.524Z,54.92
2023-05-20T10:11:42.234Z,53.49
2023-05-20T10:14:28.756Z,52.81
2023-05-20T10:17:18.592Z,50.90
2023-05-20T10:19:51.116Z,49.53
2023-05-20T10:22:29.798Z,50.10
2023-05-20T10:25:08.437Z,50.24
2023-05-20T10:27:47.837Z,51.78
2023-05-20T10:30:21.319Z,50.43
2023-05-20T10:32:57.039Z,50.58
2023-05-20T10:35:29.368Z,51.50
2023-05-20T10:38:11.236Z,50.95
2023-05-20T10:40:42.908Z,49.67
2023-05-20T10:43:29.396Z,50.40
2023-05-20T10:46:03.198Z,49.88
2023-05-20T10:48:42.397Z,49.98
2023-05-20T10:51:14.855Z,50.53
2023-05-20T10:53:46.829Z,50.16
2023-05-20T10:56:19.427Z,48.99
2023-05-20T10:58:52.806Z,49.74
2023-05-20T11:01:26.807Z,49.00
2023-05-20T11:04:00.651Z,49.28
2023-05-20T11:06:33.784Z,48.74
2023-05-20T11:09:07.457Z,48.18
2023-05-20T11:11:39.035Z,47.92
2023-05-20T11:14:14.753Z,47.41
2023-05-20T11:16:46.981Z,48.28
2023-05-20T11:19:21.638Z,47.77
2023-05-20T11:21:53.679Z,46.31
2023-05-20T11:24:29.217Z,45.00
2023-05-20T11:27:02.210Z,44.50
2023-05-20T11:29:33.903Z,43.08
2023-05-20T11:32:06.147Z,45.70
2023-05-20T11:34:39.408Z,43.27
2023-05-20T11:37:11.727Z,44.53
2023-05-20T11:39:43.303Z,43.89
2023-05-20T11:42:16.308Z,40.26
2023-05-20T11:44:48.802Z,41.19
2023-05-20T11:49:59.939Z,42.14
2023-05-20T11:52:33.882Z,42.54
2023-05-20T11:55:11.097Z,39.97
2023-05-20T11:57:42.649Z,40.72
2023-05-20T12:00:14.228Z,41.11
2023-05-20T12:02:46.015Z,40.25
2023-05-20T12:05:17.923Z,40.44
2023-05-20T12:07:49.548Z,41.89
2023-05-20T12:10:21.049Z,42.32
2023-05-20T12:12:52.581Z,42.40
2023-05-20T12:15:24.853Z,42.97
2023-05-20T12:17:56.489Z,42.20
2023-05-20T12:20:28.992Z,43.07
2023-05-20T12:23:01.214Z,42.38
2023-05-20T12:25:32.862Z,42.73
2023-05-20T12:28:04.550Z,42.99
2023-05-20T12:30:36.325Z,43.22
2023-05-20T12:33:09.063Z,42.29
2023-05-20T12:35:42.377Z,42.38
2023-05-20T12:38:13.929Z,41.55
2023-05-20T12:40:45.475Z,41.97
2023-05-20T12:43:16.984Z,40.63
2023-05-20T12:45:48.730Z,40.75
2023-05-20T12:48:20.255Z,40.96
2023-05-20T12:50:51.802Z,41.06
2023-05-20T12:53:23.314Z,40.99
2023-05-20T12:55:55.030Z,41.05
2023-05-20T12:58:26.540Z,40.50
2023-05-20T13:00:58.106Z,40.91
2023-05-20T13:03:29.763Z,39.88
2023-05-20T13:06:01.388Z,40.24
2023-05-20T13:08:33.006Z,39.59
2023-05-20T13:11:04.590Z,39.99
2023-05-20T13:13:36.528Z,39.93
2023-05-20T13:16:08.220Z,40.60
2023-05-20T13:18:39.821Z,40.19
2023-05-20T13:21:11.372Z,37.05
2023-05-20T13:23:43.336Z,38.00
2023-05-20T13:26:15.471Z,38.48
2023-05-20T13:28:47.994Z,38.08
2023-05-20T13:31:19.715Z,37.63
2023-05-20T13:33:53.228Z,37.25
2023-05-20T13:36:24.983Z,38.83
2023-05-20T13:38:56.746Z,38.52
2023-05-20T13:41:28.364Z,38.26
2023-05-20T13:43:59.881Z,39.37
2023-05-20T13:46:31.527Z,39.26
2023-05-20T13:49:03.181Z,39.70
2023-05-20T13:51:34.826Z,39.71
2023-05-20T13:54:06.757Z,39.36
2023-05-20T13:56:38.811Z,39.84
2023-05-20T13:59:10.529Z,39.32
2023-05-20T14:01:45.691Z,39.63
2023-05-20T14:04:17.335Z,39.50
2023-05-20T14:06:48.968Z,39.57
2023-05-20T14:09:20.785Z,40.73
2023-05-20T14:11:52.250Z,40.61
2023-05-20T14:14:23.783Z,40.44
2023-05-20T14:16:55.509Z,41.51
2023-05-20T14:19:27.190Z,41.81
2023-05-20T14:22:01.712Z,41.50
2023-05-20T14:24:33.515Z,41.41
2023-05-20T14:27:05.081Z,41.30
2023-05-20T14:29:36.677Z,42.79
2023-05-20T14:32:09.669Z,42.74
2023-05-20T14:34:41.426Z,43.29
2023-05-20T14:37:13.104Z,43.73
2023-05-20T14:39:44.680Z,43.71
2023-05-20T14:42:16.817Z,44.40
2023-05-20T14:44:49.825Z,44.77
2023-05-20T14:47:22.361Z,44.95
2023-05-20T14:49:54.129Z,45.01
2023-05-20T14:52:25.760Z,45.10
2023-05-20T14:54:57.307Z,44.89
2023-05-20T14:57:28.929Z,44.48
2023-05-20T15:00:00.645Z,45.02
2023-05-20T15:02:32.280Z,44.41
2023-05-20T15:05:04.094Z,45.03
2023-05-20T15:07:35.634Z,44.88
2023-05-20T15:10:07.997Z,44.60
2023-05-20T15:12:39.915Z,44.06
2023-05-20T15:15:11.535Z,44.57
2023-05-20T15:17:43.190Z,44.19
2023-05-20T15:20:14.916Z,43.97
2023-05-20T15:22:48.123Z,44.11
2023-05-20T15:25:20.827Z,43.70
2023-05-20T15:27:52.468Z,44.29
2023-05-20T15:30:24.283Z,43.48
2023-05-20T15:32:56.120Z,43.44
2023-05-20T15:35:27.821Z,42.59
2023-05-20T15:37:59.557Z,42.99
2023-05-20T15:40:32.016Z,43.67
2023-05-20T15:43:04.344Z,43.72
2023-05-20T15:45:35.995Z,44.29
2023-05-20T15:48:08.370Z,43.83
2023-05-20T15:50:40.323Z,43.10
2023-05-20T15:53:11.744Z,43.70
2023-05-20T15:55:44.889Z,43.10
2023-05-20T15:58:16.696Z,43.61
2023-05-20T16:00:49.709Z,42.99
2023-05-20T16:03:21.683Z,42.92
2023-05-20T16:05:53.317Z,41.84
2023-05-20T16:08:24.934Z,41.42
2023-05-20T16:10:56.885Z,42.03
2023-05-20T16:13:28.420Z,41.73
2023-05-20T16:16:00.376Z,42.06
2023-05-20T16:18:32.175Z,41.76
2023-05-20T16:21:07.263Z,41.89
2023-05-20T16:23:38.877Z,42.39
2023-05-20T16:26:10.577Z,42.86
2023-05-20T16:28:42.113Z,43.47
2023-05-20T16:31:13.833Z,43.91
2023-05-20T16:33:45.620Z,44.44
2023-05-20T16:36:19.204Z,43.95
2023-05-20T16:38:51.030Z,45.26
2023-05-20T16:41:22.869Z,45.31
2023-05-20T16:43:54.415Z,45.51
2023-05-20T16:46:25.994Z,45.75
2023-05-20T16:48:57.674Z,46.48
2023-05-20T16:51:29.225Z,46.63
2023-05-20T16:54:00.947Z,47.14
2023-05-20T16:56:33.430Z,47.36
2023-05-20T16:59:05.025Z,47.32
2023-05-20T17:01:36.928Z,47.90
2023-05-20T17:04:08.953Z,48.35
2023-05-20T17:06:40.458Z,48.96
2023-05-20T17:09:12.180Z,48.25
2023-05-20T17:11:44.072Z,48.88
2023-05-20T17:14:15.514Z,49.45
2023-05-20T17:16:47.311Z,49.28
2023-05-20T17:19:18.841Z,49.82
2023-05-20T17:21:50.574Z,49.77
2023-05-20T17:24:22.099Z,49.99
2023-05-20T17:26:53.664Z,49.79
2023-05-20T17:29:25.333Z,50.08
2023-05-20T17:31:56.964Z,50.17
2023-05-20T17:34:28.540Z,50.73
2023-05-20T17:37:00.127Z,50.17
2023-05-20T17:39:31.657Z,50.35
2023-05-20T17:42:03.264Z,50.93
2023-05-20T17:44:34.862Z,51.02
2023-05-20T17:47:06.749Z,50.93
2023-05-20T17:49:38.208Z,51.67
2023-05-20T17:52:09.827Z,51.39
2023-05-20T17:54:41.600Z,51.74
2023-05-20T17:57:13.139Z,51.75
2023-05-20T17:59:45.523Z,52.46
2023-05-20T18:02:17.201Z,52.83
2023-05-20T18:04:48.822Z,52.89
2023-05-20T18:07:20.484Z,53.92
2023-05-20T18:09:52.107Z,53.42
2023-05-20T18:12:23.681Z,54.31
2023-05-20T18:14:55.420Z,53.87
2023-05-20T18:17:28.160Z,54.44
2023-05-20T18:19:59.794Z,54.54
2023-05-20T18:22:31.355Z,54.50
2023-05-20T18:25:03.141Z,55.13
2023-05-20T18:27:34.676Z,55.64
2023-05-20T18:30:07.232Z,55.69
2023-05-20T18:32:39.099Z,55.96
2023-05-20T18:35:11.197Z,56.22
2023-05-20T18:37:42.762Z,56.41
2023-05-20T18:40:14.359Z,57.05
2023-05-20T18:42:46.146Z,56.82
2023-05-20T18:45:17.724Z,57.20
2023-05-20T18:47:50.084Z,58.00
2023-05-20T18:50:21.727Z,58.60
2023-05-20T18:52:53.444Z,58.46
2023-05-20T18:55:25.077Z,59.06
2023-05-20T18:57:56.668Z,58.82
2023-05-20T19:00:28.275Z,59.46
2023-05-20T19:03:00.111Z,59.86
2023-05-20T19:05:31.710Z,59.45
2023-05-20T19:08:05.809Z,60.22
2023-05-20T19:10:37.520Z,60.14
2023-05-20T19:13:09.111Z,60.55
2023-05-20T19:15:40.781Z,60.58
2023-05-20T19:18:13.518Z,60.23
2023-05-20T19:20:45.102Z,60.96
2023-05-20T19:23:16.698Z,61.05
2023-05-20T19:25:48.236Z,61.59
2023-05-20T19:28:19.828Z,61.19
2023-05-20T19:30:51.407Z,62.19
2023-05-20T19:33:23.046Z,62.25
2023-05-20T19:35:54.621Z,62.08
2023-05-20T19:38:26.346Z,62.62
2023-05-20T19:40:57.984Z,62.61
2023-05-20T19:43:30.488Z,62.57
2023-05-20T19:46:02.235Z,62.37
2023-05-20T19:48:34.015Z,63.14
2023-05-20T19:51:05.722Z,63.84
2023-05-20T19:53:38.164Z,63.79
2023-05-20T19:56:09.781Z,64.03
2023-05-20T19:58:41.353Z,63.74
2023-05-20T20:01:13.128Z,63.61
2023-05-20T20:03:46.016Z,63.66
2023-05-20T20:06:17.626Z,64.32
2023-05-20T20:08:49.293Z,64.77
2023-05-20T20:11:21.404Z,64.52
2023-05-20T20:13:52.806Z,65.04
2023-05-20T20:16:24.522Z,64.92
2023-05-20T20:18:56.152Z,64.75
2023-05-20T20:21:27.895Z,64.67
2023-05-20T20:24:00.013Z,65.30
2023-05-20T20:26:31.461Z,65.83
2023-05-20T20:29:03.080Z,65.79
2023-05-20T20:31:34.698Z,66.34
2023-05-20T20:34:06.530Z,65.53
2023-05-20T20:36:39.609Z,65.74
2023-05-20T20:39:19.026Z,65.72
2023-05-20T20:41:50.823Z,65.63
2023-05-20T20:44:22.653Z,66.23
2023-05-20T20:46:55.044Z,65.89
2023-05-20T20:49:28.391Z,66.67
2023-05-20T20:52:00.280Z,66.24
2023-05-20T20:54:32.908Z,66.50
2023-05-20T20:57:04.533Z,66.83
2023-05-20T20:59:36.573Z,66.81
2023-05-20T21:02:08.186Z,67.40
2023-05-20T21:04:41.327Z,67.54
2023-05-20T21:07:18.229Z,67.80
2023-05-20T21:09:54.853Z,68.07
2023-05-20T21:12:26.541Z,68.46
2023-05-20T21:14:58.091Z,68.86
2023-05-20T21:17:29.722Z,68.26
2023-05-20T21:20:01.303Z,68.25
2023-05-20T21:22:32.879Z,68.27
2023-05-20T21:25:04.960Z,68.77
2023-05-20T21:27:36.558Z,68.78
2023-05-20T21:30:09.813Z,69.42
2023-05-20T21:32:41.434Z,69.49
2023-05-20T21:35:13.387Z,69.34
2023-05-20T21:37:44.934Z,69.26
2023-05-20T21:40:16.517Z,69.19
2023-05-20T21:42:50.896Z,69.17
2023-05-20T21:45:22.525Z,68.74
2023-05-20T21:47:54.202Z,68.90
2023-05-20T21:50:25.805Z,68.92
2023-05-20T21:52:57.417Z,69.64
2023-05-20T21:55:29.044Z,69.54
2023-05-20T21:58:00.496Z,69.95
2023-05-20T22:00:32.074Z,70.11
2023-05-20T22:03:03.661Z,69.86
2023-05-20T22:05:35.299Z,70.22
2023-05-20T22:08:07.573Z,70.47
2023-05-20T22:10:39.207Z,70.03
2023-05-20T22:13:11.011Z,70.33
2023-05-20T22:15:43.030Z,70.56
2023-05-20T22:18:14.879Z,70.33
2023-05-20T22:20:47.653Z,70.74
2023-05-20T22:23:19.050Z,70.79
2023-05-20T22:25:50.660Z,70.92
2023-05-20T22:28:23.493Z,71.59
2023-05-20T22:30:55.664Z,71.27
2023-05-20T22:33:27.056Z,71.93
2023-05-20T22:35:59.530Z,71.58
2023-05-20T22:38:31.081Z,71.70
2023-05-20T22:41:02.675Z,71.31
2023-05-20T22:43:34.304Z,71.50
2023-05-20T22:46:07.098Z,72.06
2023-05-20T22:48:38.725Z,71.70
2023-05-20T22:51:10.956Z,72.11
2023-05-20T22:53:42.480Z,71.79
2023-05-20T22:56:15.146Z,71.64
2023-05-20T22:58:46.801Z,72.15
2023-05-20T23:01:18.892Z,72.22
2023-05-20T23:03:52.549Z,72.37
2023-05-20T23:06:24.264Z,71.78
2023-05-20T23:08:55.807Z,71.97
2023-05-20T23:11:27.567Z,72.06
2023-05-20T23:13:59.138Z,72.12
2023-05-20T23:16:31.738Z,72.33
2023-05-20T23:19:03.429Z,71.90
2023-05-20T23:21:35.129Z,72.17
2023-05-20T23:24:06.716Z,72.16
2023-05-20T23:26:38.311Z,71.99
2023-05-20T23:29:10.445Z,71.73
2023-05-20T23:31:42.052Z,71.75
2023-05-20T23:34:13.797Z,71.59
2023-05-20T23:36:45.775Z,71.56
2023-05-20T23:39:18.421Z,71.99
2023-05-20T23:41:50.547Z,71.97
2023-05-20T23:44:22.153Z,72.03
2023-05-20T23:46:53.744Z,72.00
2023-05-20T23:49:27.164Z,72.28
2023-05-20T23:51:58.845Z,72.32
2023-05-20T23:54:34.221Z,72.71
2023-05-20T23:57:10.207Z,72.76
2023-05-20T23:59:43.005Z,72.69
